Time;durP1;ratioP1;P1;durP2;ratioP2;P2;SDS_P1;SDS_P2;PMS_P1;PMS_P2;Temp;Humidity;BMP_temperature;BMP_pressure;BME280_temperature;BME280_humidity;BME280_pressure;Samples;Min_cycle;Max_cycle;Signal;HPM_P1;HPM_P2
2021/11/10 00:01:58;;;;;;;28.67;9.32;;;9.50;98.20;;;;;;5028552;28;20477;-56
2021/11/10 00:04:24;;;;;;;21.10;8.98;;;9.50;98.10;;;;;;5012499;28;20025;-55
2021/11/10 00:06:50;;;;;;;31.42;8.88;;;9.50;98.30;;;;;;5013078;28;20121;-55
2021/11/10 00:09:17;;;;;;;26.10;8.45;;;9.50;98.20;;;;;;5016620;28;20117;-53
2021/11/10 00:11:44;;;;;;;21.02;8.70;;;9.40;98.20;;;;;;4991050;28;20422;-52
2021/11/10 00:14:09;;;;;;;22.50;8.85;;;9.50;98.40;;;;;;5025921;28;20125;-53
2021/11/10 00:16:35;;;;;;;26.95;8.90;;;9.40;98.20;;;;;;5015701;28;20150;-54
2021/11/10 00:19:01;;;;;;;25.45;9.15;;;9.40;98.40;;;;;;5014402;28;20041;-55
2021/11/10 00:21:28;;;;;;;19.52;8.32;;;9.50;98.00;;;;;;5013694;28;20107;-54
2021/11/10 00:23:56;;;;;;;23.50;8.73;;;9.50;98.00;;;;;;4990780;28;20390;-55
2021/11/10 00:26:23;;;;;;;21.95;8.68;;;9.40;98.00;;;;;;5014495;28;20031;-54
2021/11/10 00:28:50;;;;;;;27.30;9.05;;;9.40;98.10;;;;;;4986398;28;20042;-54
2021/11/10 00:31:17;;;;;;;27.92;9.40;;;9.50;98.30;;;;;;5031263;28;20042;-55
2021/11/10 00:33:43;;;;;;;27.35;9.45;;;9.40;98.10;;;;;;5024559;28;20046;-55
2021/11/10 00:36:09;;;;;;;27.05;8.88;;;9.50;98.00;;;;;;5000109;28;20410;-52
2021/11/10 00:38:36;;;;;;;25.02;9.05;;;9.50;98.00;;;;;;5015431;28;20049;-53
2021/11/10 00:41:02;;;;;;;21.08;9.20;;;9.40;98.20;;;;;;5017151;28;20044;-53
2021/11/10 00:43:28;;;;;;;21.85;8.85;;;9.40;98.40;;;;;;5015247;28;20038;-51
2021/11/10 00:45:54;;;;;;;26.88;8.75;;;9.40;98.60;;;;;;5012510;28;20038;-52
2021/11/10 00:48:20;;;;;;;23.33;8.57;;;9.50;98.70;;;;;;5014215;28;20056;-52
2021/11/10 00:50:46;;;;;;;21.90;7.75;;;9.50;98.40;;;;;;5023846;28;20490;-52
2021/11/10 00:53:13;;;;;;;22.77;8.88;;;9.40;98.40;;;;;;4974385;28;20037;-52
2021/11/10 00:55:41;;;;;;;19.35;8.60;;;9.40;98.40;;;;;;5012989;28;20077;-52
2021/11/10 00:58:08;;;;;;;19.30;8.18;;;9.40;98.30;;;;;;4978782;28;20111;-53
2021/11/10 01:00:34;;;;;;;23.05;9.05;;;9.50;98.30;;;;;;4972417;28;20045;-52
2021/11/10 01:03:00;;;;;;;20.85;8.77;;;9.40;98.40;;;;;;5029108;28;20037;-55
2021/11/10 01:05:27;;;;;;;28.38;9.10;;;9.40;98.60;;;;;;4984109;28;20121;-52
2021/11/10 01:07:55;;;;;;;22.80;9.10;;;9.40;98.70;;;;;;4997512;28;20083;-54
2021/11/10 01:10:22;;;;;;;20.23;8.32;;;9.40;98.80;;;;;;5001595;28;20045;-54
2021/11/10 01:12:48;;;;;;;21.35;8.98;;;9.40;98.80;;;;;;5007412;28;20064;-54
2021/11/10 01:15:15;;;;;;;20.92;8.48;;;9.40;99.00;;;;;;5014432;28;20033;-52
2021/11/10 01:17:41;;;;;;;24.48;8.68;;;9.40;99.20;;;;;;5014841;28;20076;-56
2021/11/10 01:20:09;;;;;;;18.92;8.48;;;9.40;99.30;;;;;;5010436;28;20096;-53
2021/11/10 01:22:34;;;;;;;18.15;8.05;;;9.40;99.40;;;;;;5010832;28;20445;-52
2021/11/10 01:25:00;;;;;;;23.98;8.30;;;9.40;99.60;;;;;;5015517;28;20036;-52
2021/11/10 01:27:25;;;;;;;21.60;8.25;;;9.40;99.80;;;;;;5021311;28;20045;-54
2021/11/10 01:29:51;;;;;;;18.48;8.93;;;9.40;99.80;;;;;;5015987;28;20076;-52
2021/11/10 01:32:17;;;;;;;23.15;8.77;;;9.40;99.90;;;;;;5021040;28;20163;-52
2021/11/10 01:34:42;;;;;;;20.40;8.65;;;9.40;99.90;;;;;;5020441;28;20494;-52
2021/11/10 01:37:08;;;;;;;25.58;8.52;;;9.40;99.90;;;;;;5010661;28;20037;-54
2021/11/10 01:39:34;;;;;;;21.95;8.90;;;9.40;99.90;;;;;;5018357;28;20111;-51
2021/11/10 01:42:03;;;;;;;22.65;9.77;;;9.40;99.90;;;;;;4984842;28;20046;-52
2021/11/10 01:44:31;;;;;;;22.02;8.57;;;9.50;99.90;;;;;;5011347;28;20041;-53
2021/11/10 01:46:58;;;;;;;21.27;8.32;;;9.50;99.90;;;;;;5006403;28;20038;-52
2021/11/10 01:49:24;;;;;;;21.70;9.05;;;9.50;99.90;;;;;;5004733;28;20042;-52
2021/11/10 01:51:52;;;;;;;21.90;8.35;;;9.50;99.90;;;;;;5013486;28;20046;-52
2021/11/10 01:54:20;;;;;;;23.83;8.75;;;9.50;99.90;;;;;;5015172;28;20061;-54
2021/11/10 01:56:47;;;;;;;24.70;8.75;;;9.50;99.90;;;;;;4986580;28;20041;-54
2021/11/10 01:59:36;;;;;;;20.75;8.13;;;9.50;99.90;;;;;;4982108;28;20042;-52
2021/11/10 02:02:05;;;;;;;23.42;8.43;;;9.50;99.90;;;;;;5014930;28;20030;-54
2021/11/10 02:04:35;;;;;;;21.80;8.65;;;9.50;99.90;;;;;;4972164;28;20088;-52
2021/11/10 02:07:01;;;;;;;25.95;8.77;;;9.50;99.90;;;;;;5016271;28;20513;-55
2021/11/10 02:09:28;;;;;;;22.25;8.65;;;9.50;99.90;;;;;;5004517;28;20592;-52
2021/11/10 02:11:56;;;;;;;22.17;8.65;;;9.50;99.90;;;;;;5023945;28;20037;-52
2021/11/10 02:14:25;;;;;;;26.65;8.35;;;9.50;99.90;;;;;;5014212;28;20421;-52
2021/11/10 02:16:52;;;;;;;19.27;8.43;;;9.50;99.90;;;;;;5010783;28;20401;-51
2021/11/10 02:19:19;;;;;;;19.88;8.85;;;9.50;99.90;;;;;;5005757;28;20086;-52
2021/11/10 02:21:48;;;;;;;19.23;8.60;;;9.50;99.90;;;;;;5016077;28;20052;-53
2021/11/10 02:24:16;;;;;;;25.10;8.27;;;9.50;99.90;;;;;;5020463;28;20038;-52
2021/11/10 02:26:44;;;;;;;20.95;8.77;;;9.50;99.90;;;;;;5020870;28;20030;-53
2021/11/10 02:29:15;;;;;;;20.15;8.85;;;9.50;99.90;;;;;;5016354;28;20070;-52
2021/11/10 02:31:41;;;;;;;17.50;8.65;;;9.50;99.90;;;;;;4992379;28;20099;-54
2021/11/10 02:34:06;;;;;;;20.08;8.90;;;9.50;99.90;;;;;;5016635;28;20037;-53
2021/11/10 02:36:33;;;;;;;18.60;7.85;;;9.50;99.90;;;;;;5017611;28;20038;-51
2021/11/10 02:39:03;;;;;;;19.05;8.70;;;9.50;99.90;;;;;;5011942;28;20033;-52
2021/11/10 02:41:29;;;;;;;20.73;8.57;;;9.50;99.90;;;;;;5021992;28;20382;-51
2021/11/10 02:43:55;;;;;;;18.60;7.93;;;9.50;99.90;;;;;;5015701;28;20131;-51
2021/11/10 02:46:23;;;;;;;21.60;8.10;;;9.50;99.90;;;;;;5021550;28;20120;-51
2021/11/10 02:48:49;;;;;;;20.27;8.88;;;9.50;99.90;;;;;;5006475;28;20044;-52
2021/11/10 02:51:15;;;;;;;19.27;8.15;;;9.50;99.90;;;;;;4995653;28;20096;-52
2021/11/10 02:53:41;;;;;;;19.55;8.13;;;9.50;99.90;;;;;;4991613;28;20045;-52
2021/11/10 02:56:08;;;;;;;23.05;8.57;;;9.50;99.90;;;;;;5024093;28;20456;-53
2021/11/10 02:58:36;;;;;;;20.70;8.38;;;9.40;99.90;;;;;;5025239;28;20057;-52
2021/11/10 03:01:03;;;;;;;17.65;8.00;;;9.40;99.90;;;;;;5022125;28;20038;-52
2021/11/10 03:03:29;;;;;;;21.38;8.65;;;9.40;99.90;;;;;;5016332;28;20391;-52
2021/11/10 03:05:56;;;;;;;22.17;8.95;;;9.40;99.90;;;;;;5022146;28;20044;-52
2021/11/10 03:08:23;;;;;;;20.52;8.57;;;9.40;99.90;;;;;;5005924;28;20067;-53
2021/11/10 03:10:50;;;;;;;21.92;8.00;;;9.40;99.90;;;;;;4970506;28;20411;-52
2021/11/10 03:13:16;;;;;;;24.10;9.48;;;9.40;99.90;;;;;;5020810;28;20037;-52
2021/11/10 03:15:43;;;;;;;21.35;9.55;;;9.40;99.90;;;;;;5021342;28;20041;-52
2021/11/10 03:18:09;;;;;;;20.85;8.38;;;9.40;99.90;;;;;;5019629;28;20049;-52
2021/11/10 03:20:35;;;;;;;17.38;8.18;;;9.40;99.90;;;;;;5020322;28;20033;-52
2021/11/10 03:23:00;;;;;;;23.02;8.82;;;9.40;99.90;;;;;;5016626;28;20035;-52
2021/11/10 03:25:26;;;;;;;23.35;8.73;;;9.40;99.90;;;;;;5018936;28;20037;-51
2021/11/10 03:27:52;;;;;;;21.52;8.98;;;9.80;99.90;;;;;;5020176;28;20108;-51
2021/11/10 03:30:19;;;;;;;24.65;9.40;;;9.40;99.80;;;;;;5017875;28;20502;-52
2021/11/10 03:32:45;;;;;;;22.80;9.18;;;9.40;99.90;;;;;;5019965;28;20066;-51
2021/11/10 03:35:12;;;;;;;20.65;8.45;;;9.40;99.90;;;;;;4983859;28;20045;-54
2021/11/10 03:37:39;;;;;;;21.52;9.25;;;9.40;99.90;;;;;;4986542;28;20037;-51
2021/11/10 03:40:06;;;;;;;23.33;8.95;;;9.40;99.90;;;;;;5019250;28;20556;-54
2021/11/10 03:42:32;;;;;;;19.08;9.65;;;9.40;99.90;;;;;;5000082;28;20041;-52
2021/11/10 03:44:58;;;;;;;21.23;9.68;;;9.30;99.90;;;;;;5010809;28;20104;-52
2021/11/10 03:47:23;;;;;;;24.65;9.27;;;9.40;99.90;;;;;;5015767;28;20033;-52
2021/11/10 03:49:49;;;;;;;21.75;9.45;;;9.30;99.90;;;;;;5016712;28;20081;-55
2021/11/10 03:52:15;;;;;;;18.63;9.50;;;9.40;99.90;;;;;;5024712;28;20072;-56
2021/11/10 03:54:41;;;;;;;22.25;10.10;;;9.40;99.90;;;;;;5018042;28;20042;-55
2021/11/10 03:57:08;;;;;;;17.90;9.40;;;9.40;99.90;;;;;;5020009;28;20461;-52
2021/11/10 03:59:34;;;;;;;20.23;9.98;;;9.30;99.90;;;;;;5018724;28;20126;-53
2021/11/10 04:02:00;;;;;;;21.58;9.88;;;9.40;99.90;;;;;;5023021;28;20124;-54
2021/11/10 04:04:25;;;;;;;23.65;10.35;;;9.30;99.90;;;;;;5025628;28;20218;-52
2021/11/10 04:06:51;;;;;;;24.30;9.45;;;9.40;99.90;;;;;;5019207;28;20033;-56
2021/11/10 04:09:16;;;;;;;20.35;9.50;;;9.30;99.90;;;;;;5014546;28;20078;-52
2021/11/10 04:11:42;;;;;;;18.17;9.63;;;9.40;99.90;;;;;;5021488;28;20120;-54
2021/11/10 04:14:08;;;;;;;21.25;9.80;;;9.40;99.90;;;;;;5013823;28;20038;-55
2021/11/10 04:16:34;;;;;;;24.25;9.82;;;9.40;99.90;;;;;;5020039;28;20048;-55
2021/11/10 04:19:00;;;;;;;21.35;10.80;;;9.30;99.90;;;;;;5021822;28;20514;-54
2021/11/10 04:21:27;;;;;;;16.00;9.55;;;9.30;99.90;;;;;;5022929;28;20045;-54
2021/11/10 04:23:55;;;;;;;24.30;10.35;;;9.20;99.90;;;;;;5016262;28;20101;-56
2021/11/10 04:26:24;;;;;;;19.52;10.18;;;9.20;99.90;;;;;;4974268;28;20033;-53
2021/11/10 04:28:50;;;;;;;19.63;10.85;;;9.20;99.90;;;;;;5014420;28;20462;-55
2021/11/10 04:31:27;;;;;;;23.00;10.43;;;9.20;99.90;;;;;;5024850;28;20030;-54
2021/11/10 04:33:53;;;;;;;24.92;10.75;;;9.10;99.90;;;;;;5012086;28;20485;-54
2021/11/10 04:36:21;;;;;;;20.27;10.23;;;9.00;99.90;;;;;;5014967;28;20413;-54
2021/11/10 04:38:47;;;;;;;23.40;10.65;;;9.00;99.90;;;;;;5017200;28;20049;-54
2021/11/10 04:41:15;;;;;;;21.85;10.30;;;9.00;99.90;;;;;;5006693;28;20398;-53
2021/11/10 04:43:41;;;;;;;21.65;11.27;;;9.00;99.90;;;;;;4992266;28;20520;-54
2021/11/10 04:46:18;;;;;;;22.30;10.68;;;8.90;99.90;;;;;;5008641;28;20202;-54
2021/11/10 04:48:44;;;;;;;21.13;11.02;;;8.90;99.90;;;;;;5011991;28;20430;-55
2021/11/10 04:51:11;;;;;;;22.05;10.45;;;8.80;99.90;;;;;;5019054;28;20526;-55
2021/11/10 04:53:39;;;;;;;21.48;12.05;;;8.80;99.90;;;;;;5002765;28;20037;-56
2021/11/10 04:56:06;;;;;;;22.42;11.52;;;8.80;99.90;;;;;;5027325;28;20076;-51
2021/11/10 04:58:32;;;;;;;26.25;11.70;;;8.80;99.90;;;;;;5012246;28;20042;-53
2021/11/10 05:00:58;;;;;;;23.50;11.25;;;8.80;99.90;;;;;;5016808;28;20052;-56
2021/11/10 05:03:24;;;;;;;23.02;11.48;;;8.70;99.90;;;;;;5025387;28;20034;-54
2021/11/10 05:06:06;;;;;;;21.95;11.80;;;8.70;99.90;;;;;;5043101;28;20034;-55
2021/11/10 05:08:32;;;;;;;;;;;8.70;99.90;;;;;;4993101;28;20492;-54
2021/11/10 05:10:57;;;;;;;23.98;12.32;;;8.60;99.90;;;;;;5020665;28;19918;-52
2021/11/10 05:13:23;;;;;;;21.55;11.27;;;8.60;99.90;;;;;;5012685;28;20292;-53
2021/11/10 05:15:48;;;;;;;20.70;11.35;;;8.50;99.90;;;;;;5021441;28;20446;-50
2021/11/10 05:18:14;;;;;;;25.20;11.77;;;8.50;99.90;;;;;;5017016;28;20100;-54
2021/11/10 05:20:40;;;;;;;22.83;11.40;;;8.50;99.90;;;;;;5014667;28;20041;-52
2021/11/10 05:23:05;;;;;;;25.33;11.32;;;8.50;99.90;;;;;;5009782;28;20042;-51
2021/11/10 05:25:31;;;;;;;21.08;11.07;;;8.50;99.90;;;;;;5024828;28;20035;-54
2021/11/10 05:27:56;;;;;;;24.25;11.25;;;8.50;99.90;;;;;;5009538;28;20052;-52
2021/11/10 05:30:22;;;;;;;24.25;11.65;;;8.50;99.90;;;;;;5013556;28;20037;-54
2021/11/10 05:32:47;;;;;;;23.67;10.75;;;8.50;99.90;;;;;;5019650;28;20052;-51
2021/11/10 05:35:14;;;;;;;22.42;11.32;;;8.50;99.90;;;;;;5024498;28;20060;-50
2021/11/10 05:37:40;;;;;;;22.85;11.55;;;8.50;99.90;;;;;;5014135;28;20042;-51
2021/11/10 05:40:08;;;;;;;20.80;11.00;;;8.40;99.90;;;;;;5000165;28;20037;-54
2021/11/10 05:42:35;;;;;;;22.02;11.48;;;8.40;99.90;;;;;;5018310;28;20513;-52
2021/11/10 05:45:01;;;;;;;21.67;11.38;;;8.40;99.90;;;;;;5018889;28;20702;-54
2021/11/10 05:47:26;;;;;;;19.45;11.50;;;8.50;99.90;;;;;;5016551;28;20580;-54
2021/11/10 05:49:52;;;;;;;21.58;12.00;;;8.40;99.90;;;;;;5019330;28;20037;-50
2021/11/10 05:52:18;;;;;;;23.67;12.88;;;8.40;99.90;;;;;;4994984;28;20039;-54
2021/11/10 05:54:45;;;;;;;22.70;11.82;;;8.50;99.90;;;;;;5019210;28;20099;-54
2021/11/10 05:57:13;;;;;;;24.25;12.35;;;8.40;99.90;;;;;;4995491;28;20041;-53
2021/11/10 05:59:40;;;;;;;22.63;12.23;;;8.40;99.90;;;;;;5020382;28;20046;-55
2021/11/10 06:02:06;;;;;;;31.73;12.70;;;8.30;99.90;;;;;;5015469;28;20570;-53
2021/11/10 06:04:31;;;;;;;26.45;12.00;;;8.40;99.90;;;;;;5019494;28;20112;-53
2021/11/10 06:06:57;;;;;;;27.60;13.18;;;8.30;99.90;;;;;;5009245;28;20116;-54
2021/11/10 06:09:22;;;;;;;23.63;12.38;;;8.30;99.90;;;;;;5014042;28;20083;-54
2021/11/10 06:11:48;;;;;;;26.13;12.40;;;8.30;99.90;;;;;;5023500;28;20037;-52
2021/11/10 06:14:14;;;;;;;25.13;13.13;;;8.30;99.90;;;;;;4984069;28;20053;-54
2021/11/10 06:16:40;;;;;;;27.65;12.50;;;8.30;99.90;;;;;;5007185;28;20038;-54
2021/11/10 06:19:06;;;;;;;23.65;12.90;;;8.30;99.90;;;;;;5013846;28;20455;-54
2021/11/10 06:21:32;;;;;;;27.38;12.63;;;8.30;99.90;;;;;;4985822;28;20038;-53
2021/11/10 06:23:58;;;;;;;21.33;12.57;;;8.30;99.90;;;;;;5007892;28;20117;-54
2021/11/10 06:26:24;;;;;;;26.60;13.30;;;8.20;99.90;;;;;;4984041;28;20113;-54
2021/11/10 06:28:50;;;;;;;24.00;11.93;;;8.30;99.90;;;;;;5012095;28;20064;-55
2021/11/10 06:31:16;;;;;;;30.48;12.95;;;8.30;99.90;;;;;;5006107;28;20080;-54
2021/11/10 06:33:42;;;;;;;22.83;12.40;;;8.20;99.90;;;;;;5002797;28;20074;-55
2021/11/10 06:36:07;;;;;;;25.67;12.73;;;8.20;99.90;;;;;;5005137;28;20429;-54
2021/11/10 06:38:33;;;;;;;19.95;12.13;;;8.20;99.90;;;;;;4995329;28;20104;-54
2021/11/10 06:40:59;;;;;;;26.23;12.75;;;8.30;99.90;;;;;;5000131;28;20034;-54
2021/11/10 06:43:26;;;;;;;24.48;12.82;;;8.30;99.90;;;;;;4999205;28;20038;-54
2021/11/10 06:45:52;;;;;;;27.25;13.00;;;8.30;99.90;;;;;;4979147;28;20131;-54
2021/11/10 06:48:18;;;;;;;24.77;13.73;;;8.30;99.90;;;;;;4999032;28;20313;-55
2021/11/10 06:50:44;;;;;;;27.58;12.65;;;8.30;99.90;;;;;;5008608;28;20027;-54
2021/11/10 06:53:10;;;;;;;22.27;12.52;;;8.30;99.90;;;;;;4982508;28;20061;-54
2021/11/10 06:55:36;;;;;;;28.08;12.88;;;8.30;99.90;;;;;;5009722;28;20035;-54
2021/11/10 06:58:03;;;;;;;25.05;13.27;;;8.30;99.90;;;;;;4998335;28;20107;-54
2021/11/10 07:00:28;;;;;;;23.77;12.85;;;8.40;99.90;;;;;;5008027;28;20069;-53
2021/11/10 07:02:54;;;;;;;29.05;13.82;;;8.40;99.90;;;;;;5009224;28;20506;-54
2021/11/10 07:08:56;;;;;;;29.75;13.65;;;8.40;99.90;;;;;;5016849;28;20410;-51
2021/11/10 07:11:22;;;;;;;38.85;13.68;;;8.40;99.90;;;;;;5003556;28;20049;-52
2021/11/10 07:13:48;;;;;;;24.25;12.10;;;8.50;99.90;;;;;;5011428;28;20038;-53
2021/11/10 07:16:14;;;;;;;24.83;11.82;;;8.50;99.90;;;;;;5014871;28;20426;-55
2021/11/10 07:18:40;;;;;;;28.92;12.77;;;8.50;99.90;;;;;;5008395;28;20088;-54
2021/11/10 07:21:08;;;;;;;27.10;12.75;;;8.50;99.90;;;;;;5009528;28;20041;-52
2021/11/10 07:23:34;;;;;;;22.70;12.27;;;8.50;99.90;;;;;;4977181;28;20033;-53
2021/11/10 07:26:01;;;;;;;28.80;11.95;;;8.50;99.90;;;;;;5001921;28;20045;-51
2021/11/10 07:28:26;;;;;;;26.65;12.70;;;8.50;99.90;;;;;;5003654;28;20069;-52
2021/11/10 07:30:52;;;;;;;29.13;13.15;;;8.50;99.90;;;;;;5001723;28;20494;-53
2021/11/10 07:33:18;;;;;;;27.13;13.35;;;8.60;99.90;;;;;;4998110;28;20069;-54
2021/11/10 07:35:44;;;;;;;29.52;13.52;;;8.60;99.90;;;;;;4984758;28;20446;-55
2021/11/10 07:38:11;;;;;;;28.48;13.15;;;8.60;99.90;;;;;;5000766;28;20040;-54
2021/11/10 07:40:37;;;;;;;21.10;12.35;;;8.60;99.90;;;;;;5002935;28;20204;-54
2021/11/10 07:43:03;;;;;;;22.10;12.60;;;8.60;99.90;;;;;;5005638;28;20030;-53
2021/11/10 07:45:37;;;;;;;27.17;12.43;;;8.60;99.90;;;;;;5004751;28;20037;-55
2021/11/10 07:48:24;;;;;;;24.48;12.18;;;8.60;99.90;;;;;;4992952;28;20057;-52
2021/11/10 07:50:52;;;;;;;24.52;12.32;;;8.60;99.90;;;;;;4988008;28;20048;-53
2021/11/10 07:53:17;;;;;;;26.15;12.50;;;8.60;99.90;;;;;;5009260;28;20046;-56
2021/11/10 07:55:43;;;;;;;28.70;12.32;;;8.60;99.90;;;;;;5005705;28;20160;-56
2021/11/10 07:58:09;;;;;;;26.48;12.48;;;8.60;99.90;;;;;;5001019;28;20073;-55
2021/11/10 08:00:37;;;;;;;24.80;13.23;;;8.60;99.90;;;;;;4974119;28;20140;-55
2021/11/10 08:03:03;;;;;;;29.50;12.63;;;8.60;99.90;;;;;;5002715;28;20084;-56
2021/11/10 08:05:29;;;;;;;29.58;12.45;;;8.50;99.90;;;;;;5004405;28;20114;-56
2021/11/10 08:07:55;;;;;;;25.13;11.95;;;8.60;99.90;;;;;;4983872;28;20030;-55
2021/11/10 08:10:21;;;;;;;23.20;12.60;;;8.60;99.90;;;;;;5001034;28;20387;-53
2021/11/10 08:12:48;;;;;;;25.10;12.35;;;8.60;99.90;;;;;;4971527;28;20117;-53
2021/11/10 08:15:15;;;;;;;27.85;12.30;;;8.60;99.90;;;;;;4978426;28;20046;-52
2021/11/10 08:17:42;;;;;;;25.70;12.88;;;8.60;99.90;;;;;;4999335;28;20042;-55
2021/11/10 08:20:13;;;;;;;25.80;12.32;;;8.60;99.90;;;;;;4995406;28;20117;-54
2021/11/10 08:22:40;;;;;;;24.65;12.95;;;8.70;99.90;;;;;;5001331;28;20061;-55
2021/11/10 08:25:07;;;;;;;25.50;13.10;;;8.70;99.90;;;;;;5002492;28;20061;-53
2021/11/10 08:27:35;;;;;;;26.80;11.95;;;8.70;99.90;;;;;;5001192;28;20163;-52
2021/11/10 08:30:06;;;;;;;29.13;13.02;;;8.80;99.90;;;;;;5004996;28;20049;-54
2021/11/10 08:32:33;;;;;;;28.50;12.90;;;8.80;99.90;;;;;;5010313;28;20056;-51
2021/11/10 08:34:59;;;;;;;20.63;12.10;;;8.80;99.90;;;;;;4988654;28;20049;-54
2021/11/10 08:37:24;;;;;;;27.85;12.48;;;8.80;99.90;;;;;;4956763;28;20580;-55
2021/11/10 08:39:50;;;;;;;25.60;12.52;;;8.80;99.90;;;;;;5009793;28;20050;-55
2021/11/10 08:42:16;;;;;;;28.05;13.00;;;8.80;99.90;;;;;;5011983;28;20038;-55
2021/11/10 08:44:45;;;;;;;23.73;12.60;;;8.80;99.90;;;;;;4974866;28;20045;-54
2021/11/10 08:47:12;;;;;;;28.48;12.93;;;8.80;99.90;;;;;;5000947;28;20038;-54
2021/11/10 08:49:38;;;;;;;28.75;12.88;;;8.90;99.90;;;;;;5005215;28;20060;-55
2021/11/10 08:52:03;;;;;;;29.02;12.10;;;8.80;99.90;;;;;;4998536;28;20042;-55
2021/11/10 08:54:30;;;;;;;26.77;12.25;;;8.80;99.90;;;;;;5002179;28;20042;-55
2021/11/10 09:00:12;;;;;;;26.95;13.05;;;8.80;99.90;;;;;;5003220;28;20042;-51
2021/11/10 09:02:37;;;;;;;27.05;13.10;;;8.80;99.90;;;;;;5001477;28;20120;-50
2021/11/10 09:05:04;;;;;;;29.33;12.98;;;8.90;99.90;;;;;;5001105;28;20057;-51
2021/11/10 09:07:30;;;;;;;30.60;12.77;;;8.90;99.90;;;;;;5001396;28;20037;-54
2021/11/10 09:09:56;;;;;;;31.17;12.90;;;8.90;99.90;;;;;;5000564;28;20511;-52
2021/11/10 09:12:32;;;;;;;28.80;12.80;;;8.90;99.90;;;;;;4997952;28;20038;-52
2021/11/10 09:14:59;;;;;;;29.33;12.75;;;8.90;99.90;;;;;;4994942;28;20042;-54
2021/11/10 09:17:26;;;;;;;28.60;12.73;;;8.90;99.90;;;;;;5010010;28;20042;-54
2021/11/10 09:19:52;;;;;;;26.95;12.68;;;8.90;99.90;;;;;;4982969;28;20045;-52
2021/11/10 09:22:17;;;;;;;30.02;12.98;;;8.90;99.90;;;;;;5000602;28;20101;-52
2021/11/10 09:24:43;;;;;;;28.95;12.55;;;9.00;99.90;;;;;;5002283;28;20497;-52
2021/11/10 09:27:39;;;;;;;28.58;13.48;;;9.00;99.90;;;;;;5011739;28;20034;-54
2021/11/10 09:30:09;;;;;;;28.52;13.13;;;9.00;99.90;;;;;;4999199;28;20042;-53
2021/11/10 09:32:35;;;;;;;37.65;13.32;;;9.00;99.90;;;;;;5002517;28;20517;-54
2021/11/10 09:35:01;;;;;;;29.02;12.95;;;9.10;99.90;;;;;;4995259;28;20044;-52
2021/11/10 09:37:28;;;;;;;27.15;12.65;;;9.10;99.90;;;;;;4999390;28;20050;-55
2021/11/10 09:39:54;;;;;;;32.20;12.68;;;9.10;99.90;;;;;;5002637;28;20042;-53
2021/11/10 09:42:23;;;;;;;29.30;13.00;;;9.10;99.90;;;;;;5005693;28;20045;-53
2021/11/10 09:44:52;;;;;;;32.50;12.45;;;9.10;99.90;;;;;;4990260;28;20582;-55
2021/11/10 09:47:19;;;;;;;26.70;13.18;;;9.10;99.70;;;;;;4992273;28;20045;-53
2021/11/10 09:49:50;;;;;;;26.75;12.82;;;9.10;99.90;;;;;;5010806;28;20188;-50
2021/11/10 09:52:16;;;;;;;28.88;13.63;;;9.10;99.90;;;;;;4999145;28;20050;-50
2021/11/10 09:54:42;;;;;;;31.80;11.50;;;9.00;99.90;;;;;;5008080;28;20038;-52
2021/11/10 09:57:08;;;;;;;28.27;13.07;;;9.00;99.90;;;;;;5009108;28;20383;-54
2021/11/10 09:59:35;;;;;;;25.42;11.65;;;9.00;99.90;;;;;;5008847;28;20045;-51
2021/11/10 10:02:01;;;;;;;27.23;12.40;;;9.10;99.90;;;;;;5001621;28;20116;-50
2021/11/10 10:04:28;;;;;;;27.60;11.68;;;9.10;99.90;;;;;;5002006;28;20491;-51
2021/11/10 10:06:54;;;;;;;25.08;11.88;;;9.10;99.90;;;;;;5002079;28;20129;-52
2021/11/10 10:09:20;;;;;;;29.42;11.70;;;9.10;99.90;;;;;;4998837;28;20561;-53
2021/11/10 10:11:45;;;;;;;27.75;12.40;;;9.20;99.90;;;;;;5001969;28;20038;-52
2021/11/10 10:14:11;;;;;;;30.40;12.73;;;9.20;99.90;;;;;;5000448;28;20080;-53
2021/11/10 10:16:37;;;;;;;27.13;11.98;;;9.20;99.90;;;;;;5000864;28;20110;-54
2021/11/10 10:19:08;;;;;;;29.83;12.18;;;9.30;99.90;;;;;;5001708;28;20483;-52
2021/11/10 10:21:40;;;;;;;34.42;12.48;;;9.30;99.90;;;;;;4997687;28;20046;-51
2021/11/10 10:24:07;;;;;;;29.88;12.20;;;9.30;99.90;;;;;;4986221;28;20510;-50
2021/11/10 10:26:33;;;;;;;28.92;11.98;;;9.40;99.90;;;;;;5006321;28;20040;-50
2021/11/10 10:29:08;;;;;;;25.48;11.43;;;9.40;99.90;;;;;;5006028;28;20038;-52
2021/11/10 10:31:39;;;;;;;26.15;12.55;;;9.40;99.90;;;;;;5004210;28;20488;-50
2021/11/10 10:34:11;;;;;;;27.90;12.15;;;9.40;99.90;;;;;;5006022;28;20120;-54
2021/11/10 10:36:39;;;;;;;31.80;11.55;;;9.40;99.90;;;;;;5007474;28;20050;-53
2021/11/10 10:39:14;;;;;;;29.05;13.38;;;9.40;99.90;;;;;;5017060;28;20041;-54
2021/11/10 10:41:47;;;;;;;29.60;12.20;;;9.40;99.90;;;;;;5006948;28;20033;-51
2021/11/10 10:44:15;;;;;;;26.02;11.20;;;9.40;99.90;;;;;;5003360;28;20606;-49
2021/11/10 10:46:45;;;;;;;26.38;12.40;;;9.40;99.90;;;;;;5007944;28;20050;-52
2021/11/10 10:49:30;;;;;;;24.42;11.98;;;9.40;99.90;;;;;;4996749;28;20128;-50
2021/11/10 10:52:48;;;;;;;26.05;11.57;;;9.40;99.90;;;;;;5024320;28;20076;-50
2021/11/10 10:55:50;;;;;;;27.10;11.52;;;9.50;99.90;;;;;;5001026;28;20427;-53
2021/11/10 10:58:37;;;;;;;23.08;11.25;;;9.50;99.90;;;;;;5017118;28;20456;-53
2021/11/10 11:01:26;;;;;;;25.75;11.40;;;9.60;99.90;;;;;;5003927;28;20048;-53
2021/11/10 11:04:07;;;;;;;28.95;11.23;;;9.60;99.90;;;;;;5010892;28;20086;-53
2021/11/10 11:06:38;;;;;;;22.08;11.05;;;9.60;99.90;;;;;;5006892;28;20081;-51
2021/11/10 11:09:12;;;;;;;28.00;11.85;;;9.60;99.90;;;;;;5006048;28;20168;-55
2021/11/10 11:11:43;;;;;;;27.27;11.45;;;9.70;99.90;;;;;;5005583;28;20594;-55
2021/11/10 11:14:25;;;;;;;32.72;11.80;;;9.70;99.90;;;;;;5014721;28;20046;-54
2021/11/10 11:17:04;;;;;;;22.95;10.57;;;9.70;99.90;;;;;;5008719;28;20056;-51
2021/11/10 11:19:33;;;;;;;26.13;11.25;;;9.70;99.90;;;;;;5008806;28;20180;-52
2021/11/10 11:22:01;;;;;;;22.83;10.80;;;9.70;99.90;;;;;;5004917;28;20042;-51
2021/11/10 11:24:26;;;;;;;27.75;10.52;;;9.80;99.90;;;;;;5002143;28;20043;-53
2021/11/10 11:26:52;;;;;;;29.67;11.05;;;9.80;99.90;;;;;;5005212;28;20053;-52
2021/11/10 11:29:25;;;;;;;22.63;10.80;;;9.80;99.90;;;;;;4996590;28;20109;-51
2021/11/10 11:31:53;;;;;;;28.50;11.48;;;9.80;99.90;;;;;;5008510;28;20112;-55
2021/11/10 11:34:20;;;;;;;26.00;10.88;;;9.80;99.90;;;;;;5007640;28;20038;-52
2021/11/10 11:36:49;;;;;;;27.35;12.15;;;9.80;99.90;;;;;;5004702;28;20118;-51
2021/11/10 11:39:15;;;;;;;22.80;11.05;;;9.90;99.90;;;;;;4998611;28;20057;-54
2021/11/10 11:41:41;;;;;;;30.48;11.70;;;9.90;99.90;;;;;;4999454;28;20034;-51
2021/11/10 11:44:06;;;;;;;32.20;11.02;;;9.90;99.90;;;;;;5001488;28;20733;-54
2021/11/10 11:46:41;;;;;;;22.10;10.60;;;9.90;99.80;;;;;;4999102;28;20030;-54
2021/11/10 11:49:07;;;;;;;27.38;10.77;;;9.90;99.80;;;;;;5001024;28;20038;-54
2021/11/10 11:51:34;;;;;;;25.95;10.38;;;9.90;99.90;;;;;;5002058;28;20406;-52
2021/11/10 11:54:03;;;;;;;28.35;10.15;;;9.90;99.80;;;;;;5011878;28;20045;-53
2021/11/10 11:56:31;;;;;;;26.83;10.52;;;9.90;99.90;;;;;;5011294;28;20081;-53
2021/11/10 11:59:01;;;;;;;27.15;10.48;;;10.00;99.80;;;;;;4987731;28;20406;-50
2021/11/10 12:01:34;;;;;;;24.45;11.20;;;10.00;99.80;;;;;;4992888;28;20332;-51
2021/11/10 12:04:10;;;;;;;25.90;10.60;;;10.00;99.90;;;;;;5006299;28;20097;-51
2021/11/10 12:06:48;;;;;;;29.15;10.30;;;10.00;99.90;;;;;;5021429;28;20044;-53
2021/11/10 12:09:19;;;;;;;29.15;10.23;;;10.00;99.90;;;;;;5024082;28;20045;-53
2021/11/10 12:11:55;;;;;;;23.95;10.35;;;10.10;99.90;;;;;;5021282;28;20047;-53
2021/11/10 12:14:29;;;;;;;22.83;10.68;;;10.10;99.60;;;;;;5009177;28;20045;-49
2021/11/10 12:17:00;;;;;;;24.95;9.57;;;10.10;99.70;;;;;;4994719;28;20045;-49
2021/11/10 12:19:34;;;;;;;26.80;10.90;;;10.10;99.70;;;;;;4999805;28;20042;-49
2021/11/10 12:22:18;;;;;;;27.60;10.68;;;10.10;99.70;;;;;;4993770;28;20461;-53
2021/11/10 12:24:54;;;;;;;21.88;10.57;;;10.10;99.70;;;;;;5015317;28;20038;-51
2021/11/10 12:27:31;;;;;;;21.20;10.65;;;10.10;99.60;;;;;;5017130;28;20037;-50
2021/11/10 12:30:09;;;;;;;31.30;10.95;;;10.10;99.70;;;;;;4990560;28;20033;-49
2021/11/10 12:32:34;;;;;;;26.10;10.45;;;10.10;99.80;;;;;;5016366;28;20038;-52
2021/11/10 12:35:01;;;;;;;25.88;10.75;;;10.10;99.90;;;;;;4986412;28;20045;-53
2021/11/10 12:37:30;;;;;;;24.40;11.10;;;10.10;99.90;;;;;;5001065;28;20052;-49
2021/11/10 12:40:07;;;;;;;25.23;10.85;;;10.20;99.90;;;;;;5010615;28;20083;-53
2021/11/10 12:42:57;;;;;;;27.85;10.55;;;10.20;99.90;;;;;;5010554;28;20067;-49
2021/11/10 12:45:37;;;;;;;26.08;10.93;;;10.20;99.90;;;;;;5003546;28;20077;-49
2021/11/10 12:48:12;;;;;;;32.50;11.57;;;10.20;99.90;;;;;;5012641;28;20057;-50
2021/11/10 12:50:52;;;;;;;27.55;10.52;;;10.20;99.80;;;;;;5020533;28;20067;-49
2021/11/10 12:53:39;;;;;;;27.70;11.30;;;10.20;99.70;;;;;;5002081;28;20046;-51